Estestar — 3ECR8 — position and weather

sailwx.info

Track history (hours):
 
Tides and Currents Weather Stations Pressure Air Temp Water Temp Dewpoint Dewpoint Depression Visibility Wind Speed Wind Dir Waves Ship Positions

Estestar

Last reported at 2014-Jul-28 07:30 UTC. Time now 2014-Jul-28 18:32 UTC.
Position N 35°58' W 005°18'.

Length 133 m; draft 7.5 m.

Type: Cargo ship. MMSI: 371448000.

Date/timePositionNaut miles runAvg speedWind from/ knotsBaromVisibWave heightAir tempDewpointWater temp
2014-Jul-28 07:30N 35°58' W 005°18'8311.4
2014-Jul-28 00:12N 36°05' W 007°01'2810.3
2014-Jul-27 21:30N 36°12' W 007°34'1010.3
2014-Jul-27 20:32N 36°15' W 007°46'1310.6
2014-Jul-27 19:17N 36°18' W 008°02'1010.6
2014-Jul-27 18:22N 36°21' W 008°14'1110.8
2014-Jul-27 17:20N 36°24' W 008°27'94 9.6
2014-Jul-27 07:32N 37°34' W 009°45'1110.8
2014-Jul-27 06:33N 37°44' W 009°49'1110.7
2014-Jul-27 05:33N 37°54' W 009°52'1110.8
2014-Jul-27 04:33N 38°05' W 009°54'1110.5
2014-Jul-27 03:33N 38°15' W 009°57'1010.5
2014-Jul-27 02:33N 38°26' W 010°01'1110.9
2014-Jul-27 01:33N 38°36' W 010°04'1110.9
2014-Jul-27 00:33N 38°47' W 010°05'1110.8
2014-Jul-26 23:33N 38°58' W 010°05'1411.0
2014-Jul-26 22:18N 39°11' W 010°06'2110.9
2014-Jul-26 20:21N 39°33' W 010°06'910.9
2014-Jul-26 19:33N 39°41' W 010°05'  
2014-Jul-24 07:31N 43°20' W 003°02'0 0.0
2014-Jul-24 06:31N 43°20' W 003°02'0 0.0
2014-Jul-24 05:31N 43°20' W 003°02'0 0.0
2014-Jul-24 04:31N 43°20' W 003°02'0 0.0
2014-Jul-24 03:31N 43°20' W 003°02'0 0.0
2014-Jul-24 02:31N 43°20' W 003°02'0 0.0
2014-Jul-24 01:31N 43°20' W 003°02'0 0.0
2014-Jul-24 00:31N 43°20' W 003°02'0 0.0
2014-Jul-23 23:31N 43°20' W 003°02'0 0.0
2014-Jul-23 22:31N 43°20' W 003°02'0 0.0
2014-Jul-23 21:31N 43°20' W 003°02'0 0.0
2014-Jul-23 20:31N 43°20' W 003°02'0 0.0
2014-Jul-23 19:31N 43°20' W 003°02'0 0.0
2014-Jul-23 18:31N 43°20' W 003°02'0 0.0
2014-Jul-23 17:31N 43°20' W 003°02'0 0.0
2014-Jul-23 16:31N 43°20' W 003°02'0 0.0
2014-Jul-23 15:31N 43°20' W 003°02'0 0.0
2014-Jul-23 14:31N 43°20' W 003°02'0 0.0
2014-Jul-23 13:31N 43°20' W 003°02'0 0.0
2014-Jul-23 12:19N 43°20' W 003°02'  
2014-Jul-19 14:32N 43°23' W 003°07'0 0.1
2014-Jul-19 13:32N 43°23' W 003°07'0 0.1
2014-Jul-19 12:29N 43°23' W 003°07'0 0.1
2014-Jul-19 11:32N 43°23' W 003°07'0 0.0
2014-Jul-19 10:32N 43°23' W 003°07'4 4.4
2014-Jul-19 09:33N 43°27' W 003°08'1010.3
2014-Jul-19 08:33N 43°36' W 003°13'1010.3
2014-Jul-19 07:33N 43°46' W 003°19'1010.3
2014-Jul-19 06:33N 43°55' W 003°24'1010.6
2014-Jul-19 05:33N 44°05' W 003°30'2610.9
2014-Jul-19 03:11N 44°29' W 003°44'811.3
2014-Jul-19 02:31N 44°36' W 003°48'1111.3
2014-Jul-19 01:32N 44°46' W 003°54'1211.8
2014-Jul-19 00:33N 44°57' W 004°01'  
Track history (hours):
 
Tides and Currents Weather Stations Pressure Air Temp Water Temp Dewpoint Dewpoint Depression Visibility Wind Speed Wind Dir Waves Ship Positions

Estestar

Last reported at 2014-Jul-28 07:30 UTC. Time now 2014-Jul-28 18:32 UTC.
Position N 35°58' W 005°18'.

Length 133 m; draft 7.5 m.

Type: Cargo ship. MMSI: 371448000.

Date/timePositionNaut miles runAvg speedWind from/ knotsBaromVisibWave heightAir tempDewpointWater temp
2014-Jul-28 07:30N 35°58' W 005°18'8311.4
2014-Jul-28 00:12N 36°05' W 007°01'2810.3
2014-Jul-27 21:30N 36°12' W 007°34'1010.3
2014-Jul-27 20:32N 36°15' W 007°46'1310.6
2014-Jul-27 19:17N 36°18' W 008°02'1010.6
2014-Jul-27 18:22N 36°21' W 008°14'1110.8
2014-Jul-27 17:20N 36°24' W 008°27'94 9.6
2014-Jul-27 07:32N 37°34' W 009°45'1110.8
2014-Jul-27 06:33N 37°44' W 009°49'1110.7
2014-Jul-27 05:33N 37°54' W 009°52'1110.8
2014-Jul-27 04:33N 38°05' W 009°54'1110.5
2014-Jul-27 03:33N 38°15' W 009°57'1010.5
2014-Jul-27 02:33N 38°26' W 010°01'1110.9
2014-Jul-27 01:33N 38°36' W 010°04'1110.9
2014-Jul-27 00:33N 38°47' W 010°05'1110.8
2014-Jul-26 23:33N 38°58' W 010°05'1411.0
2014-Jul-26 22:18N 39°11' W 010°06'2110.9
2014-Jul-26 20:21N 39°33' W 010°06'910.9
2014-Jul-26 19:33N 39°41' W 010°05'  
2014-Jul-24 07:31N 43°20' W 003°02'0 0.0
2014-Jul-24 06:31N 43°20' W 003°02'0 0.0
2014-Jul-24 05:31N 43°20' W 003°02'0 0.0
2014-Jul-24 04:31N 43°20' W 003°02'0 0.0
2014-Jul-24 03:31N 43°20' W 003°02'0 0.0
2014-Jul-24 02:31N 43°20' W 003°02'0 0.0
2014-Jul-24 01:31N 43°20' W 003°02'0 0.0
2014-Jul-24 00:31N 43°20' W 003°02'0 0.0
2014-Jul-23 23:31N 43°20' W 003°02'0 0.0
2014-Jul-23 22:31N 43°20' W 003°02'0 0.0
2014-Jul-23 21:31N 43°20' W 003°02'0 0.0
2014-Jul-23 20:31N 43°20' W 003°02'0 0.0
2014-Jul-23 19:31N 43°20' W 003°02'0 0.0
2014-Jul-23 18:31N 43°20' W 003°02'0 0.0
2014-Jul-23 17:31N 43°20' W 003°02'0 0.0
2014-Jul-23 16:31N 43°20' W 003°02'0 0.0
2014-Jul-23 15:31N 43°20' W 003°02'0 0.0
2014-Jul-23 14:31N 43°20' W 003°02'0 0.0
2014-Jul-23 13:31N 43°20' W 003°02'0 0.0
2014-Jul-23 12:19N 43°20' W 003°02'  
2014-Jul-19 14:32N 43°23' W 003°07'0 0.1
2014-Jul-19 13:32N 43°23' W 003°07'0 0.1
2014-Jul-19 12:29N 43°23' W 003°07'0 0.1
2014-Jul-19 11:32N 43°23' W 003°07'0 0.0
2014-Jul-19 10:32N 43°23' W 003°07'4 4.4
2014-Jul-19 09:33N 43°27' W 003°08'1010.3
2014-Jul-19 08:33N 43°36' W 003°13'1010.3
2014-Jul-19 07:33N 43°46' W 003°19'1010.3
2014-Jul-19 06:33N 43°55' W 003°24'1010.6
2014-Jul-19 05:33N 44°05' W 003°30'2610.9
2014-Jul-19 03:11N 44°29' W 003°44'811.3
2014-Jul-19 02:31N 44°36' W 003°48'1111.3
2014-Jul-19 01:32N 44°46' W 003°54'1211.8
2014-Jul-19 00:33N 44°57' W 004°01'  

Dump ship's entire track history